Time;durP1;ratioP1;P1;durP2;ratioP2;P2;SDS_P1;SDS_P2;PMS_P1;PMS_P2;Temp;Humidity;BMP_temperature;BMP_pressure;BME280_temperature;BME280_humidity;BME280_pressure;Samples;Min_cycle;Max_cycle;Signal;HPM_P1;HPM_P2
2022/09/10 00:01:47;;;;;;;1.17;0.98;;;21.60;68.30;;;;;;5082106;28;20127;-37
2022/09/10 00:04:14;;;;;;;1.88;0.82;;;21.60;68.20;;;;;;5100334;28;20048;-35
2022/09/10 00:06:40;;;;;;;1.02;1.00;;;21.60;67.10;;;;;;5080787;28;20024;-35
2022/09/10 00:09:06;;;;;;;1.10;0.77;;;21.60;66.80;;;;;;5082793;28;20029;-35
2022/09/10 00:11:34;;;;;;;1.47;0.70;;;21.60;65.80;;;;;;5074441;28;20131;-35
2022/09/10 00:14:04;;;;;;;0.90;0.80;;;21.60;66.00;;;;;;5064195;28;20033;-35
2022/09/10 00:16:30;;;;;;;1.20;0.93;;;21.60;67.30;;;;;;5080911;28;20032;-35
2022/09/10 00:18:57;;;;;;;1.35;1.10;;;21.60;67.80;;;;;;5090848;28;20020;-36
2022/09/10 00:21:23;;;;;;;1.80;0.73;;;21.60;68.00;;;;;;5081658;28;20055;-35
2022/09/10 00:23:49;;;;;;;1.42;0.90;;;21.60;67.50;;;;;;5082714;28;20059;-34
2022/09/10 00:26:18;;;;;;;1.00;0.90;;;21.60;67.20;;;;;;5072062;28;20029;-35
2022/09/10 00:28:44;;;;;;;1.20;0.80;;;21.60;66.50;;;;;;5063222;28;20037;-35
2022/09/10 00:31:12;;;;;;;1.00;0.90;;;21.60;65.70;;;;;;5065503;28;20076;-35
2022/09/10 00:33:38;;;;;;;;;;;21.60;66.50;;;;;;5080879;28;20099;-35
2022/09/10 00:36:12;;;;;;;1.00;0.90;;;21.60;67.20;;;;;;5081706;28;20297;-34
2022/09/10 00:38:39;;;;;;;2.58;0.90;;;21.50;67.50;;;;;;5076613;28;20827;-35
2022/09/10 00:41:07;;;;;;;1.00;0.93;;;21.50;67.80;;;;;;5074778;28;20040;-35
2022/09/10 00:43:56;;;;;;;4.35;0.90;;;21.50;67.80;;;;;;5079680;28;20032;-35
2022/09/10 00:46:59;;;;;;;0.63;0.60;;;21.50;67.50;;;;;;5082276;28;20024;-35
2022/09/10 00:49:31;;;;;;;1.73;1.05;;;21.50;67.10;;;;;;5070589;28;20041;-35
2022/09/10 00:51:58;;;;;;;0.98;0.80;;;21.50;67.40;;;;;;5074834;28;20036;-35
2022/09/10 00:54:24;;;;;;;0.85;0.77;;;21.50;67.60;;;;;;5079036;28;20024;-35
2022/09/10 00:56:51;;;;;;;1.73;0.90;;;21.50;67.80;;;;;;5071252;28;20035;-34
2022/09/10 00:59:19;;;;;;;1.02;0.90;;;21.50;68.00;;;;;;5041256;28;20032;-35
2022/09/10 01:01:45;;;;;;;0.80;0.80;;;21.50;68.10;;;;;;5059781;28;20039;-35
2022/09/10 01:04:11;;;;;;;0.80;0.80;;;21.50;67.50;;;;;;5071857;28;20029;-35
2022/09/10 01:06:38;;;;;;;1.00;0.80;;;21.50;67.10;;;;;;5069576;28;20036;-35
2022/09/10 01:09:04;;;;;;;1.00;0.80;;;21.50;66.70;;;;;;5046899;28;20099;-35
2022/09/10 01:11:43;;;;;;;1.25;0.85;;;21.50;67.60;;;;;;5078508;28;20044;-35
2022/09/10 01:14:31;;;;;;;1.10;1.00;;;21.50;67.70;;;;;;5076966;28;20094;-35
2022/09/10 01:17:17;;;;;;;0.80;0.80;;;21.50;67.90;;;;;;5077943;28;20040;-34
2022/09/10 01:20:14;;;;;;;1.10;1.00;;;21.50;68.00;;;;;;5078787;28;20586;-35
2022/09/10 01:22:46;;;;;;;0.90;0.90;;;21.50;68.20;;;;;;5078970;28;20127;-35
2022/09/10 01:25:42;;;;;;;1.38;0.90;;;21.50;68.30;;;;;;5089684;28;20067;-35
2022/09/10 01:28:37;;;;;;;1.17;0.90;;;21.50;68.10;;;;;;5071881;28;20013;-35
2022/09/10 01:31:10;;;;;;;1.15;0.88;;;21.50;67.70;;;;;;5079186;28;20067;-40
2022/09/10 01:33:56;;;;;;;1.23;0.95;;;21.50;67.20;;;;;;5082253;28;20025;-34
2022/09/10 01:36:24;;;;;;;1.02;1.02;;;21.50;67.80;;;;;;5081355;28;20119;-35
2022/09/10 01:38:50;;;;;;;0.80;0.75;;;21.50;68.00;;;;;;5076386;28;20029;-35
2022/09/10 01:41:17;;;;;;;1.60;0.90;;;21.50;67.90;;;;;;5085932;28;20020;-35
2022/09/10 01:43:43;;;;;;;1.27;0.90;;;21.50;67.90;;;;;;5083036;28;20031;-35
2022/09/10 01:46:33;;;;;;;7.28;1.50;;;21.50;68.00;;;;;;5066660;28;20029;-34
2022/09/10 01:49:28;;;;;;;7.43;1.23;;;21.50;68.00;;;;;;5074114;28;20023;-44
2022/09/10 01:52:07;;;;;;;8.10;1.08;;;21.50;68.20;;;;;;5061468;28;20045;-36
2022/09/10 01:55:05;;;;;;;5.55;1.25;;;21.50;68.30;;;;;;5061811;28;20056;-36
2022/09/10 01:58:06;;;;;;;4.63;1.05;;;21.50;68.30;;;;;;5059659;28;20043;-36
2022/09/10 02:00:33;;;;;;;4.65;1.02;;;21.50;68.40;;;;;;5058038;28;20041;-36
2022/09/10 02:03:10;;;;;;;6.17;1.17;;;21.60;68.70;;;;;;5047938;28;20031;-36
2022/09/10 02:05:37;;;;;;;3.92;1.20;;;21.60;68.80;;;;;;5039340;28;20281;-36
2022/09/10 02:08:09;;;;;;;;;;;21.60;69.00;;;;;;5023286;28;20033;-36
2022/09/10 02:10:59;;;;;;;5.00;1.30;;;21.60;69.10;;;;;;5034161;28;19964;-35
2022/09/10 02:13:27;;;;;;;3.45;1.10;;;21.60;69.30;;;;;;5058734;28;20120;-35
2022/09/10 02:15:53;;;;;;;1.35;0.93;;;21.60;69.40;;;;;;5039318;28;20037;-36
2022/09/10 02:18:19;;;;;;;2.42;1.15;;;21.60;69.50;;;;;;5041854;28;20030;-37
2022/09/10 02:20:46;;;;;;;3.70;1.40;;;21.60;69.60;;;;;;5036450;28;20179;-36
2022/09/10 02:23:12;;;;;;;5.78;1.40;;;21.60;70.40;;;;;;5049779;28;20033;-36
2022/09/10 02:25:39;;;;;;;1.27;1.17;;;21.70;69.80;;;;;;5056974;28;20040;-36
2022/09/10 02:28:05;;;;;;;2.75;1.30;;;21.70;69.80;;;;;;5063655;28;20025;-36
2022/09/10 02:30:31;;;;;;;3.10;1.30;;;21.70;69.80;;;;;;5051483;28;20056;-36
2022/09/10 02:32:57;;;;;;;1.88;1.25;;;21.70;69.70;;;;;;5062073;28;20025;-36
2022/09/10 02:35:23;;;;;;;4.63;1.45;;;21.70;69.80;;;;;;5065729;28;20033;-36
2022/09/10 02:37:49;;;;;;;3.95;1.38;;;21.70;69.80;;;;;;5084016;28;20077;-36
2022/09/10 02:40:20;;;;;;;2.83;1.30;;;21.70;69.80;;;;;;5087140;28;20032;-36
2022/09/10 02:42:46;;;;;;;2.60;1.45;;;21.80;69.90;;;;;;5087683;28;20025;-36
2022/09/10 02:45:13;;;;;;;2.35;1.40;;;21.80;70.00;;;;;;5083028;28;20033;-36
2022/09/10 02:47:39;;;;;;;1.63;1.33;;;21.80;70.00;;;;;;5095479;28;20036;-36
2022/09/10 02:50:06;;;;;;;3.20;1.30;;;21.80;70.00;;;;;;5087061;28;20051;-36
2022/09/10 02:52:32;;;;;;;3.42;1.70;;;21.80;70.10;;;;;;5083019;28;20040;-36
2022/09/10 02:54:59;;;;;;;3.05;1.65;;;21.80;70.10;;;;;;5083987;28;20028;-36
2022/09/10 02:57:25;;;;;;;2.30;1.17;;;21.90;70.00;;;;;;5084787;28;20786;-36
2022/09/10 02:59:52;;;;;;;1.52;1.38;;;21.90;69.20;;;;;;5083274;28;20031;-36
2022/09/10 03:02:19;;;;;;;2.15;1.38;;;21.90;68.30;;;;;;5086430;28;20047;-33
2022/09/10 03:04:46;;;;;;;4.13;1.35;;;21.90;68.60;;;;;;5086690;28;20033;-33
2022/09/10 03:07:15;;;;;;;1.42;1.13;;;21.90;68.80;;;;;;5091471;28;20063;-34
2022/09/10 03:09:42;;;;;;;3.65;1.48;;;21.90;69.00;;;;;;5090739;28;20036;-33
2022/09/10 03:12:08;;;;;;;3.13;1.40;;;21.90;69.20;;;;;;5087948;28;20039;-33
2022/09/10 03:14:34;;;;;;;4.60;1.33;;;21.90;69.30;;;;;;5083012;28;20028;-34
2022/09/10 03:17:01;;;;;;;2.05;1.20;;;21.90;69.30;;;;;;5080414;28;20094;-34
2022/09/10 03:19:28;;;;;;;3.90;1.40;;;21.90;69.50;;;;;;5086668;28;20491;-33
2022/09/10 03:21:54;;;;;;;1.00;0.97;;;21.90;69.70;;;;;;5081747;28;20041;-34
2022/09/10 03:24:21;;;;;;;1.50;1.20;;;22.00;70.00;;;;;;5083017;28;20032;-34
2022/09/10 03:26:47;;;;;;;2.35;1.30;;;22.00;70.10;;;;;;5083087;28;20036;-33
2022/09/10 03:29:14;;;;;;;6.32;1.48;;;22.00;70.30;;;;;;5081712;28;20521;-33
2022/09/10 03:31:41;;;;;;;2.20;1.05;;;22.00;70.30;;;;;;5079424;28;20051;-33
2022/09/10 03:34:09;;;;;;;;;;;22.00;69.90;;;;;;5084671;28;20025;-34
2022/09/10 03:36:35;;;;;;;1.30;1.10;;;22.00;69.00;;;;;;5083583;28;19916;-33
2022/09/10 03:39:01;;;;;;;2.47;0.90;;;22.00;69.40;;;;;;5082473;28;20043;-33
2022/09/10 03:41:28;;;;;;;1.70;1.10;;;22.00;69.60;;;;;;5080851;28;20039;-33
2022/09/10 03:43:54;;;;;;;2.23;1.10;;;22.00;69.70;;;;;;5076911;28;20094;-33
2022/09/10 03:46:21;;;;;;;2.03;1.20;;;22.00;69.80;;;;;;5086322;28;20273;-34
2022/09/10 03:48:47;;;;;;;1.42;1.13;;;22.00;69.90;;;;;;5075926;28;20029;-34
2022/09/10 03:51:14;;;;;;;2.37;1.27;;;22.10;70.00;;;;;;5083723;28;20037;-33
2022/09/10 03:53:42;;;;;;;4.90;1.30;;;22.10;70.10;;;;;;5081346;28;20020;-34
2022/09/10 03:56:11;;;;;;;1.92;1.20;;;22.10;70.10;;;;;;5081671;28;20036;-34
2022/09/10 03:58:37;;;;;;;1.90;1.40;;;22.10;70.90;;;;;;5085048;28;20094;-33
2022/09/10 04:01:03;;;;;;;1.60;0.93;;;22.10;70.20;;;;;;5077433;28;20034;-33
2022/09/10 04:03:29;;;;;;;1.20;1.10;;;22.10;70.10;;;;;;5081030;28;20032;-34
2022/09/10 04:05:57;;;;;;;1.15;1.00;;;22.10;69.50;;;;;;5082072;28;20037;-34
2022/09/10 04:08:23;;;;;;;2.72;1.20;;;22.10;68.70;;;;;;5080691;28;20035;-34
2022/09/10 04:10:49;;;;;;;3.53;1.10;;;22.10;68.80;;;;;;5080779;28;20064;-33
2022/09/10 04:13:16;;;;;;;1.58;1.05;;;22.10;69.00;;;;;;5084951;28;20024;-33
2022/09/10 04:15:44;;;;;;;3.22;1.10;;;22.10;69.10;;;;;;5083664;28;20118;-33
2022/09/10 04:18:11;;;;;;;2.10;1.30;;;22.10;68.80;;;;;;5082636;28;20633;-33
2022/09/10 04:20:37;;;;;;;1.40;0.93;;;22.20;68.90;;;;;;5081849;28;20032;-33
2022/09/10 04:23:04;;;;;;;1.23;1.00;;;22.20;69.00;;;;;;5081744;28;20092;-33
2022/09/10 04:25:30;;;;;;;2.95;1.17;;;22.20;69.10;;;;;;5083489;28;20020;-33
2022/09/10 04:27:56;;;;;;;1.73;1.10;;;22.20;69.10;;;;;;5083610;28;20032;-33
2022/09/10 04:30:22;;;;;;;2.05;0.80;;;22.20;69.20;;;;;;5083890;28;20566;-34
2022/09/10 04:32:49;;;;;;;1.48;0.93;;;22.20;69.20;;;;;;5086069;28;20079;-33
2022/09/10 04:35:15;;;;;;;0.93;0.90;;;22.20;69.40;;;;;;5084781;28;20127;-33
2022/09/10 04:37:42;;;;;;;1.13;1.02;;;22.20;69.40;;;;;;5083892;28;20085;-33
2022/09/10 04:40:08;;;;;;;1.50;0.95;;;22.20;68.80;;;;;;5085280;28;20040;-33
2022/09/10 04:42:34;;;;;;;1.52;0.95;;;22.20;67.90;;;;;;5086871;28;20119;-33
2022/09/10 04:45:01;;;;;;;1.35;0.80;;;22.10;67.20;;;;;;5080854;28;20444;-33
2022/09/10 04:47:27;;;;;;;1.77;0.57;;;22.10;67.20;;;;;;5084002;28;20020;-33
2022/09/10 04:49:53;;;;;;;4.00;0.80;;;22.10;67.40;;;;;;5087503;28;20156;-33
2022/09/10 04:52:21;;;;;;;1.20;0.80;;;22.10;67.60;;;;;;5087983;28;20096;-33
2022/09/10 04:54:48;;;;;;;0.63;0.63;;;22.10;67.80;;;;;;5080514;28;21911;-33
2022/09/10 04:57:14;;;;;;;0.80;0.70;;;22.20;68.00;;;;;;5087551;28;20044;-33
2022/09/10 04:59:40;;;;;;;1.15;0.60;;;22.20;68.10;;;;;;5081633;28;20105;-33
2022/09/10 05:02:08;;;;;;;1.08;0.60;;;22.20;68.30;;;;;;5081669;28;20359;-33
2022/09/10 05:04:34;;;;;;;0.90;0.70;;;22.20;68.40;;;;;;5082341;28;20032;-33
2022/09/10 05:07:00;;;;;;;0.70;0.60;;;22.20;68.60;;;;;;5080731;28;20032;-33
2022/09/10 05:09:30;;;;;;;0.75;0.75;;;22.20;68.70;;;;;;5078602;28;20081;-33
2022/09/10 05:12:00;;;;;;;1.77;0.80;;;22.10;68.80;;;;;;5075746;28;20078;-33
2022/09/10 05:14:26;;;;;;;0.90;0.70;;;22.10;68.90;;;;;;5076468;28;20028;-32
2022/09/10 05:16:52;;;;;;;0.60;0.60;;;22.20;69.10;;;;;;5082156;28;20028;-33
2022/09/10 05:19:19;;;;;;;0.60;0.57;;;22.20;69.20;;;;;;5078641;28;20428;-33
2022/09/10 05:21:45;;;;;;;0.70;0.60;;;22.20;69.20;;;;;;5084750;28;20028;-33
2022/09/10 05:24:11;;;;;;;0.50;0.50;;;22.20;69.30;;;;;;5086331;28;20092;-33
2022/09/10 05:26:38;;;;;;;0.40;0.40;;;22.20;69.40;;;;;;5079492;28;20029;-33
2022/09/10 05:29:05;;;;;;;0.60;0.60;;;22.20;69.50;;;;;;5079331;28;20039;-33
2022/09/10 05:31:32;;;;;;;0.70;0.68;;;22.20;69.50;;;;;;5085544;28;20072;-33
2022/09/10 05:34:00;;;;;;;0.60;0.60;;;22.20;69.70;;;;;;5085502;28;20037;-33
2022/09/10 05:36:32;;;;;;;0.70;0.70;;;22.20;69.60;;;;;;5087619;28;20036;-34
2022/09/10 05:38:59;;;;;;;0.70;0.60;;;22.20;69.70;;;;;;5078754;28;20087;-33
2022/09/10 05:41:26;;;;;;;1.25;0.90;;;22.20;68.90;;;;;;5087442;28;20036;-33
2022/09/10 05:43:53;;;;;;;1.92;0.60;;;22.10;67.90;;;;;;5084455;28;20033;-33
2022/09/10 05:46:20;;;;;;;0.70;0.70;;;22.10;67.60;;;;;;5089381;28;20044;-33
2022/09/10 05:48:46;;;;;;;0.70;0.70;;;22.10;67.80;;;;;;5079866;28;20056;-32
2022/09/10 05:51:12;;;;;;;0.77;0.77;;;22.10;68.00;;;;;;5087662;28;20148;-32
2022/09/10 05:53:40;;;;;;;0.70;0.70;;;22.10;68.10;;;;;;5087060;28;20104;-33
2022/09/10 05:56:06;;;;;;;0.70;0.70;;;22.10;68.30;;;;;;5088018;28;20032;-32
2022/09/10 05:58:33;;;;;;;0.90;0.68;;;22.10;68.50;;;;;;5087113;28;20099;-32
2022/09/10 06:01:00;;;;;;;0.60;0.60;;;22.10;68.70;;;;;;5084028;28;20092;-32
2022/09/10 06:03:26;;;;;;;0.70;0.70;;;22.10;68.80;;;;;;5086578;28;20522;-32
2022/09/10 06:05:52;;;;;;;0.75;0.75;;;22.10;68.90;;;;;;5088463;28;20033;-32
2022/09/10 06:08:22;;;;;;;0.80;0.80;;;22.10;69.00;;;;;;5080697;28;20032;-32
2022/09/10 06:10:59;;;;;;;0.70;0.60;;;22.10;69.10;;;;;;5085955;28;20040;-32
2022/09/10 06:13:25;;;;;;;0.88;0.70;;;22.10;69.30;;;;;;5083350;28;20028;-32
2022/09/10 06:15:52;;;;;;;0.65;0.65;;;22.10;69.30;;;;;;5082082;28;20106;-32
2022/09/10 06:18:18;;;;;;;0.77;0.63;;;22.10;69.40;;;;;;5083869;28;20132;-32
2022/09/10 06:20:46;;;;;;;0.80;0.70;;;22.10;69.50;;;;;;5085221;28;20105;-32
2022/09/10 06:23:16;;;;;;;0.98;0.52;;;22.10;69.60;;;;;;5084135;28;20024;-32
2022/09/10 06:25:43;;;;;;;0.52;0.52;;;22.10;69.60;;;;;;5083686;28;20048;-32
2022/09/10 06:28:11;;;;;;;1.02;0.60;;;22.10;69.70;;;;;;5082526;28;20032;-32
2022/09/10 06:30:38;;;;;;;1.27;0.50;;;22.10;69.70;;;;;;5079782;28;20056;-32
2022/09/10 06:33:04;;;;;;;0.60;0.60;;;22.10;69.80;;;;;;5083105;28;20059;-32
2022/09/10 06:35:32;;;;;;;0.60;0.60;;;22.10;69.30;;;;;;5083778;28;20032;-32
2022/09/10 06:37:58;;;;;;;1.38;0.63;;;22.10;68.50;;;;;;5083442;28;20126;-32
2022/09/10 06:40:26;;;;;;;1.00;0.90;;;22.00;67.70;;;;;;5086286;28;20054;-33
2022/09/10 06:42:53;;;;;;;0.70;0.70;;;22.00;67.80;;;;;;5081293;28;20441;-32
2022/09/10 06:45:19;;;;;;;0.60;0.60;;;22.00;68.10;;;;;;5085037;28;20029;-32
2022/09/10 06:47:46;;;;;;;0.50;0.50;;;22.00;68.30;;;;;;5084307;28;20888;-32
2022/09/10 06:50:12;;;;;;;0.80;0.70;;;22.00;68.50;;;;;;5081688;28;20033;-33
2022/09/10 06:52:38;;;;;;;1.02;0.70;;;22.00;68.80;;;;;;5081846;28;20367;-32
2022/09/10 06:55:04;;;;;;;1.00;0.68;;;22.00;69.10;;;;;;5084088;28;20036;-32
2022/09/10 06:57:31;;;;;;;0.73;0.60;;;22.00;69.30;;;;;;5082411;28;20033;-32
2022/09/10 06:59:57;;;;;;;0.80;0.70;;;22.00;69.40;;;;;;5082955;28;20033;-32
2022/09/10 07:02:24;;;;;;;1.17;0.43;;;22.00;69.50;;;;;;5081335;28;20036;-32
2022/09/10 07:04:50;;;;;;;0.73;0.70;;;22.00;69.70;;;;;;5084451;28;20025;-32
2022/09/10 07:07:16;;;;;;;0.50;0.40;;;22.00;69.70;;;;;;5083519;28;20036;-32
2022/09/10 07:09:43;;;;;;;0.50;0.50;;;22.00;69.90;;;;;;5083944;28;20032;-32
2022/09/10 07:12:10;;;;;;;0.65;0.60;;;22.10;69.90;;;;;;5082195;28;20059;-32
2022/09/10 07:14:36;;;;;;;0.60;0.52;;;22.00;70.00;;;;;;5081766;28;20036;-32
2022/09/10 07:17:02;;;;;;;1.13;0.60;;;22.00;70.00;;;;;;5083839;28;20032;-32
2022/09/10 07:19:29;;;;;;;0.50;0.47;;;22.00;70.20;;;;;;5081404;28;20033;-32
2022/09/10 07:21:56;;;;;;;;;;;22.00;70.20;;;;;;5084121;28;20035;-32
2022/09/10 07:24:22;;;;;;;0.50;0.50;;;22.00;70.20;;;;;;5086357;28;19943;-32
2022/09/10 07:26:48;;;;;;;0.73;0.60;;;22.00;70.30;;;;;;5075948;28;20905;-31
2022/09/10 07:29:14;;;;;;;0.88;0.57;;;22.00;70.40;;;;;;5081725;28;20036;-32
2022/09/10 07:31:40;;;;;;;0.60;0.50;;;22.00;70.40;;;;;;5081433;28;20060;-31
2022/09/10 07:34:07;;;;;;;0.45;0.45;;;22.00;70.50;;;;;;5080735;28;20033;-31
2022/09/10 07:36:33;;;;;;;0.40;0.40;;;22.00;70.50;;;;;;5081231;28;20681;-32
2022/09/10 07:39:00;;;;;;;0.60;0.60;;;22.10;70.60;;;;;;5084470;28;20048;-32
2022/09/10 07:41:28;;;;;;;0.60;0.60;;;22.10;70.70;;;;;;5081150;28;20025;-32
2022/09/10 07:43:55;;;;;;;0.50;0.50;;;22.10;70.80;;;;;;5080096;28;20058;-32
2022/09/10 07:46:21;;;;;;;0.53;0.47;;;22.10;70.80;;;;;;5089368;28;20536;-32
2022/09/10 07:48:47;;;;;;;0.73;0.60;;;22.10;70.90;;;;;;5087259;28;20051;-32
2022/09/10 07:51:17;;;;;;;0.40;0.40;;;22.10;70.90;;;;;;5080486;28;20032;-32
2022/09/10 07:53:44;;;;;;;1.05;0.38;;;22.10;71.60;;;;;;5084494;28;20103;-32
2022/09/10 07:56:10;;;;;;;0.50;0.50;;;22.10;71.00;;;;;;5073765;28;20397;-32
2022/09/10 07:58:37;;;;;;;0.47;0.47;;;22.10;71.00;;;;;;5082529;28;20070;-32
2022/09/10 08:01:08;;;;;;;0.47;0.47;;;22.10;71.00;;;;;;5071790;28;20036;-32
2022/09/10 08:03:34;;;;;;;0.40;0.40;;;22.10;71.10;;;;;;5074336;28;20066;-32
2022/09/10 08:06:01;;;;;;;0.43;0.43;;;22.10;71.10;;;;;;5069648;28;20048;-32
2022/09/10 08:08:31;;;;;;;0.57;0.57;;;22.10;71.20;;;;;;5064402;28;20040;-32
2022/09/10 08:11:05;;;;;;;1.33;0.40;;;22.10;71.30;;;;;;5070339;28;20123;-32
2022/09/10 08:13:33;;;;;;;0.40;0.40;;;22.10;71.30;;;;;;5083872;28;20072;-32
2022/09/10 08:15:59;;;;;;;0.45;0.40;;;22.10;71.40;;;;;;5072371;28;20037;-31
2022/09/10 08:18:25;;;;;;;0.80;0.38;;;22.10;71.40;;;;;;5086785;28;20024;-32
2022/09/10 08:20:55;;;;;;;0.47;0.43;;;22.10;71.40;;;;;;5079953;28;20028;-32
2022/09/10 08:23:21;;;;;;;0.55;0.40;;;22.10;71.40;;;;;;5079490;28;20033;-32
2022/09/10 08:25:50;;;;;;;0.40;0.40;;;22.10;71.50;;;;;;5082975;28;20024;-32
2022/09/10 08:28:21;;;;;;;1.10;0.38;;;22.10;71.50;;;;;;5083187;28;20071;-32
2022/09/10 08:30:57;;;;;;;0.40;0.40;;;22.10;71.60;;;;;;5082922;28;20075;-32
2022/09/10 08:33:24;;;;;;;0.40;0.40;;;22.10;71.50;;;;;;5093146;28;20032;-32
2022/09/10 08:35:55;;;;;;;0.75;0.45;;;22.10;71.50;;;;;;5081779;28;20074;-32
2022/09/10 08:38:28;;;;;;;0.30;0.30;;;22.10;71.70;;;;;;5087543;28;20040;-32
2022/09/10 08:40:56;;;;;;;0.52;0.43;;;22.10;71.70;;;;;;5079429;28;20024;-31
2022/09/10 08:43:48;;;;;;;0.50;0.50;;;22.20;71.80;;;;;;5079286;28;20047;-32
2022/09/10 08:46:29;;;;;;;1.17;0.40;;;22.10;71.80;;;;;;5079831;28;20021;-32
2022/09/10 08:49:10;;;;;;;0.60;0.50;;;22.10;71.90;;;;;;5062840;28;20153;-32
2022/09/10 08:52:01;;;;;;;0.45;0.32;;;22.20;72.20;;;;;;5069035;28;20041;-32
2022/09/10 08:54:42;;;;;;;1.20;0.30;;;22.20;72.20;;;;;;5069263;28;20056;-32
2022/09/10 08:57:37;;;;;;;0.50;0.50;;;22.20;72.20;;;;;;5082926;28;20066;-32
2022/09/10 09:00:04;;;;;;;0.40;0.40;;;22.20;72.20;;;;;;5082009;28;20103;-32
2022/09/10 09:03:09;;;;;;;0.43;0.38;;;22.20;72.30;;;;;;5078589;28;20035;-32
2022/09/10 09:05:42;;;;;;;0.50;0.40;;;22.20;72.20;;;;;;5080697;28;20036;-32
2022/09/10 09:08:10;;;;;;;0.32;0.32;;;22.20;72.30;;;;;;5075210;28;20025;-31
2022/09/10 09:11:04;;;;;;;0.77;0.40;;;22.20;72.30;;;;;;5076523;28;20076;-32
2022/09/10 09:13:52;;;;;;;0.75;0.50;;;22.20;72.30;;;;;;5085074;28;20029;-32
2022/09/10 09:16:27;;;;;;;0.60;0.52;;;22.20;72.30;;;;;;5070026;28;20116;-32
2022/09/10 09:19:16;;;;;;;0.32;0.32;;;22.20;72.30;;;;;;5081629;28;20029;-32
2022/09/10 09:21:51;;;;;;;0.45;0.32;;;22.20;72.30;;;;;;5081537;28;20119;-32
2022/09/10 09:24:22;;;;;;;0.50;0.40;;;22.20;72.30;;;;;;5075053;28;20107;-32
2022/09/10 09:26:48;;;;;;;0.40;0.32;;;22.20;72.30;;;;;;5076719;28;20035;-32
2022/09/10 09:29:23;;;;;;;0.43;0.35;;;22.20;72.30;;;;;;5076382;28;20149;-33
2022/09/10 09:31:52;;;;;;;0.30;0.30;;;22.20;72.30;;;;;;5079386;28;20048;-32
2022/09/10 09:34:23;;;;;;;0.40;0.30;;;22.20;72.40;;;;;;5088594;28;20023;-32
2022/09/10 09:36:52;;;;;;;0.45;0.45;;;22.20;72.20;;;;;;5070299;28;20036;-31
2022/09/10 09:39:29;;;;;;;0.47;0.47;;;22.20;71.20;;;;;;5072903;28;20033;-32
2022/09/10 09:42:01;;;;;;;0.65;0.52;;;22.10;70.20;;;;;;5065419;28;20029;-32
2022/09/10 09:44:30;;;;;;;0.40;0.40;;;22.10;70.30;;;;;;5079323;28;20036;-32
2022/09/10 09:46:56;;;;;;;0.45;0.40;;;22.10;70.40;;;;;;5080456;28;20067;-32
2022/09/10 09:49:22;;;;;;;1.08;0.55;;;22.20;70.70;;;;;;5078681;28;20203;-32
2022/09/10 09:51:50;;;;;;;0.40;0.40;;;22.20;70.80;;;;;;5101504;28;20044;-32
2022/09/10 09:54:23;;;;;;;0.60;0.40;;;22.20;71.00;;;;;;5078886;28;20029;-32
2022/09/10 09:56:50;;;;;;;0.40;0.40;;;22.20;71.10;;;;;;5069486;28;20044;-32
2022/09/10 09:59:42;;;;;;;0.40;0.40;;;22.20;71.30;;;;;;5080694;28;20135;-32
2022/09/10 10:02:18;;;;;;;0.30;0.30;;;22.20;71.40;;;;;;5061183;28;20044;-32
2022/09/10 10:05:05;;;;;;;0.50;0.30;;;22.10;71.40;;;;;;5074233;28;20040;-32
2022/09/10 10:07:33;;;;;;;0.40;0.40;;;22.20;71.60;;;;;;5075633;28;20436;-32
2022/09/10 10:10:02;;;;;;;;;;;22.20;71.70;;;;;;5080290;28;20025;-32
2022/09/10 10:12:30;;;;;;;0.40;0.40;;;22.20;71.80;;;;;;5080960;28;19955;-32
2022/09/10 10:14:57;;;;;;;0.38;0.30;;;22.20;71.80;;;;;;5069433;28;20024;-32
2022/09/10 10:17:36;;;;;;;0.30;0.30;;;22.20;72.00;;;;;;5076961;28;20028;-31
2022/09/10 10:20:04;;;;;;;0.30;0.30;;;22.20;72.00;;;;;;5061795;28;20060;-32
2022/09/10 10:22:31;;;;;;;0.52;0.40;;;22.20;72.10;;;;;;5064500;28;20017;-32
2022/09/10 10:25:00;;;;;;;0.20;0.20;;;22.20;72.20;;;;;;5072717;28;20040;-32
2022/09/10 10:27:31;;;;;;;0.30;0.30;;;22.20;72.30;;;;;;5067069;28;20039;-32
2022/09/10 10:30:15;;;;;;;0.30;0.30;;;22.20;72.30;;;;;;5078941;28;20052;-32
2022/09/10 10:33:01;;;;;;;0.30;0.30;;;22.20;72.20;;;;;;5083321;28;20080;-32
2022/09/10 10:35:50;;;;;;;0.30;0.30;;;22.20;72.30;;;;;;5063119;28;20037;-32
2022/09/10 10:38:29;;;;;;;0.20;0.20;;;22.20;72.30;;;;;;5082024;28;20067;-32
2022/09/10 10:41:12;;;;;;;0.30;0.30;;;22.20;72.30;;;;;;5079985;28;20072;-32
2022/09/10 10:44:00;;;;;;;0.38;0.35;;;22.20;72.40;;;;;;5080063;28;20080;-32
2022/09/10 10:46:47;;;;;;;0.22;0.20;;;22.20;72.40;;;;;;5067025;28;20079;-32
2022/09/10 10:49:36;;;;;;;0.32;0.30;;;22.20;72.40;;;;;;5076251;28;20032;-32
2022/09/10 10:52:27;;;;;;;0.47;0.38;;;22.20;72.60;;;;;;5068627;28;20049;-32
2022/09/10 10:55:08;;;;;;;0.20;0.20;;;22.20;72.80;;;;;;5066571;28;20025;-32
2022/09/10 10:57:52;;;;;;;0.28;0.20;;;22.20;72.80;;;;;;5068014;28;20033;-32
2022/09/10 11:00:19;;;;;;;0.20;0.20;;;22.20;72.90;;;;;;5082514;28;20032;-32
2022/09/10 11:03:05;;;;;;;0.38;0.38;;;22.20;73.00;;;;;;5084444;28;20495;-36
2022/09/10 11:05:36;;;;;;;0.40;0.30;;;22.20;73.20;;;;;;5080526;28;20033;-32
2022/09/10 11:08:13;;;;;;;0.28;0.20;;;22.20;72.80;;;;;;5071368;28;20029;-32
2022/09/10 11:10:45;;;;;;;0.57;0.40;;;22.20;71.70;;;;;;5067860;28;20043;-32
2022/09/10 11:13:36;;;;;;;0.32;0.30;;;22.10;71.50;;;;;;5078896;28;20029;-32
2022/09/10 11:16:08;;;;;;;0.20;0.20;;;22.10;70.90;;;;;;5073544;28;20029;-32
2022/09/10 11:18:43;;;;;;;0.40;0.40;;;22.10;71.10;;;;;;5079448;28;20032;-32
2022/09/10 11:21:17;;;;;;;0.30;0.30;;;22.10;71.30;;;;;;5082717;28;20036;-32
2022/09/10 11:23:53;;;;;;;0.30;0.30;;;22.20;71.50;;;;;;5065988;28;20059;-32
2022/09/10 11:26:57;;;;;;;0.20;0.20;;;22.10;71.60;;;;;;5066600;28;20044;-32
2022/09/10 11:30:02;;;;;;;0.40;0.30;;;22.10;71.80;;;;;;5094997;28;20037;-33
2022/09/10 11:32:55;;;;;;;0.20;0.20;;;22.10;72.00;;;;;;5070468;28;20044;-32
2022/09/10 11:35:40;;;;;;;0.40;0.20;;;22.10;72.10;;;;;;5072886;28;20077;-32
2022/09/10 11:38:27;;;;;;;0.47;0.30;;;22.10;72.20;;;;;;5063836;28;20063;-32
2022/09/10 11:41:10;;;;;;;0.30;0.30;;;22.10;72.40;;;;;;5073229;28;20036;-32
2022/09/10 11:43:58;;;;;;;0.20;0.20;;;22.20;72.50;;;;;;5068780;28;20040;-32
2022/09/10 11:46:39;;;;;;;0.32;0.30;;;22.10;72.20;;;;;;5067621;28;20040;-32
2022/09/10 11:49:16;;;;;;;0.30;0.30;;;22.10;71.10;;;;;;5061934;28;20029;-32
2022/09/10 11:51:43;;;;;;;0.30;0.30;;;22.10;70.10;;;;;;5068030;28;20047;-32
2022/09/10 11:54:14;;;;;;;0.43;0.30;;;22.10;70.30;;;;;;5088703;28;20275;-32
2022/09/10 11:57:22;;;;;;;0.25;0.20;;;22.10;70.40;;;;;;5079391;28;20036;-33
2022/09/10 11:59:59;;;;;;;0.47;0.20;;;22.10;70.80;;;;;;5051162;28;20029;-33
2022/09/10 12:02:25;;;;;;;0.30;0.30;;;22.10;71.10;;;;;;5051116;28;20064;-33
2022/09/10 12:05:09;;;;;;;0.40;0.30;;;22.10;71.20;;;;;;5059349;28;20127;-32
2022/09/10 12:07:39;;;;;;;0.25;0.20;;;22.10;71.40;;;;;;5060352;28;20132;-32
2022/09/10 12:10:11;;;;;;;0.30;0.30;;;22.10;71.50;;;;;;5043195;28;20120;-32
2022/09/10 12:12:48;;;;;;;0.40;0.20;;;22.10;71.70;;;;;;5060400;28;20028;-33
2022/09/10 12:15:25;;;;;;;0.52;0.22;;;22.10;71.90;;;;;;5060380;28;20067;-32
2022/09/10 12:18:05;;;;;;;0.17;0.17;;;22.10;72.00;;;;;;5051424;28;20060;-32
2022/09/10 12:20:34;;;;;;;0.35;0.20;;;22.10;72.10;;;;;;5028899;28;20040;-33
2022/09/10 12:23:00;;;;;;;0.20;0.20;;;22.10;72.30;;;;;;5060262;28;20041;-32
2022/09/10 12:25:28;;;;;;;0.20;0.20;;;22.10;72.30;;;;;;5049421;28;20029;-32
2022/09/10 12:28:02;;;;;;;0.40;0.20;;;22.10;72.40;;;;;;5042284;28;20033;-33
2022/09/10 12:30:28;;;;;;;0.20;0.20;;;22.10;72.60;;;;;;5043307;28;20125;-33
2022/09/10 12:33:00;;;;;;;0.20;0.20;;;22.10;72.60;;;;;;5060054;28;20033;-32
2022/09/10 12:35:36;;;;;;;0.28;0.22;;;22.10;72.70;;;;;;5051454;28;20123;-32
2022/09/10 12:38:39;;;;;;;0.38;0.20;;;22.10;71.90;;;;;;5077233;28;20040;-32
2022/09/10 12:41:23;;;;;;;0.30;0.30;;;22.00;70.70;;;;;;5080343;28;20296;-33
2022/09/10 12:43:57;;;;;;;0.20;0.20;;;22.00;70.50;;;;;;5069341;28;20029;-33
2022/09/10 12:46:24;;;;;;;1.83;0.38;;;22.00;70.70;;;;;;5083111;28;20050;-32
2022/09/10 12:48:57;;;;;;;0.20;0.20;;;22.10;70.90;;;;;;5078018;28;20036;-32
2022/09/10 12:51:28;;;;;;;0.30;0.20;;;22.10;71.10;;;;;;5081288;28;20041;-33
2022/09/10 12:54:32;;;;;;;0.45;0.30;;;22.00;71.30;;;;;;5081291;28;20024;-32
2022/09/10 12:57:26;;;;;;;0.30;0.20;;;22.10;71.50;;;;;;5070211;28;20029;-32
2022/09/10 13:00:11;;;;;;;0.22;0.20;;;22.10;71.90;;;;;;5080966;28;20026;-32
2022/09/10 13:02:49;;;;;;;0.30;0.30;;;22.10;71.90;;;;;;5095720;28;20036;-32
2022/09/10 13:05:43;;;;;;;0.28;0.20;;;22.10;72.20;;;;;;5113112;28;20054;-32
2022/09/10 13:08:24;;;;;;;0.40;0.22;;;22.10;72.20;;;;;;5081335;28;20047;-32
2022/09/10 13:10:57;;;;;;;0.40;0.20;;;22.10;72.40;;;;;;5100262;28;20041;-32
2022/09/10 13:13:55;;;;;;;0.25;0.15;;;22.10;72.50;;;;;;5068496;28;20033;-33